Time;durP1;ratioP1;P1;durP2;ratioP2;P2;SDS_P1;SDS_P2;PMS_P1;PMS_P2;Temp;Humidity;BMP_temperature;BMP_pressure;BME280_temperature;BME280_humidity;BME280_pressure;Samples;Min_cycle;Max_cycle;Signal;HPM_P1;HPM_P2
2022/06/30 00:01:44;;;;;;;3.95;1.65;;;20.20;99.90;;;;;;5013441;28;20061;-89
2022/06/30 00:04:10;;;;;;;3.58;1.70;;;20.20;99.90;;;;;;5009437;28;20040;-89
2022/06/30 00:06:36;;;;;;;3.38;1.65;;;20.10;99.90;;;;;;5030282;28;20038;-89
2022/06/30 00:09:02;;;;;;;2.97;1.67;;;20.20;99.90;;;;;;5015607;28;20544;-89
2022/06/30 00:11:29;;;;;;;3.10;1.75;;;20.20;99.90;;;;;;5029036;28;20636;-88
2022/06/30 00:13:57;;;;;;;4.03;1.80;;;20.10;99.90;;;;;;5013230;28;20558;-89
2022/06/30 00:16:23;;;;;;;5.63;2.20;;;20.10;99.90;;;;;;5011471;28;20041;-89
2022/06/30 00:18:48;;;;;;;4.70;2.20;;;20.10;99.90;;;;;;5014225;28;20029;-88
2022/06/30 00:21:14;;;;;;;5.72;2.80;;;20.00;99.90;;;;;;5007502;28;20112;-88
2022/06/30 00:23:40;;;;;;;4.13;2.17;;;20.00;99.90;;;;;;5009501;28;20556;-89
2022/06/30 00:26:06;;;;;;;5.32;2.63;;;20.00;99.90;;;;;;5005637;28;20026;-89
2022/06/30 00:28:32;;;;;;;4.40;2.35;;;19.90;99.90;;;;;;5010739;28;20055;-89
2022/06/30 00:30:58;;;;;;;4.28;1.98;;;19.80;99.90;;;;;;5011559;28;20029;-89
2022/06/30 00:33:24;;;;;;;3.83;2.45;;;19.80;99.90;;;;;;5030835;28;20096;-89
2022/06/30 00:35:50;;;;;;;4.07;2.42;;;19.80;99.90;;;;;;5006478;28;20055;-88
2022/06/30 00:38:16;;;;;;;3.75;2.42;;;19.80;99.90;;;;;;5009143;28;20053;-88
2022/06/30 00:40:44;;;;;;;3.53;2.08;;;19.80;99.90;;;;;;5007664;28;20026;-88
2022/06/30 00:43:14;;;;;;;4.40;2.20;;;19.70;99.90;;;;;;5008672;28;20497;-89
2022/06/30 00:45:41;;;;;;;4.20;2.08;;;19.70;99.90;;;;;;5010736;28;20025;-88
2022/06/30 00:48:07;;;;;;;5.00;2.25;;;19.70;99.90;;;;;;5011407;28;20018;-89
2022/06/30 00:50:32;;;;;;;4.82;2.30;;;19.60;99.90;;;;;;5010649;28;20022;-88
2022/06/30 00:53:02;;;;;;;4.10;2.22;;;19.60;99.90;;;;;;5012155;28;20032;-88
2022/06/30 00:55:29;;;;;;;3.78;2.13;;;19.50;99.90;;;;;;5007578;28;20022;-89
2022/06/30 00:57:56;;;;;;;4.75;2.25;;;19.50;99.90;;;;;;5009895;28;20116;-89
2022/06/30 01:00:24;;;;;;;3.63;2.03;;;19.50;99.90;;;;;;5012060;28;20025;-89
2022/06/30 01:02:51;;;;;;;5.75;2.00;;;19.50;99.90;;;;;;5014364;28;20120;-90
2022/06/30 01:05:20;;;;;;;5.63;2.40;;;19.50;99.90;;;;;;5000281;28;20084;-90
2022/06/30 01:07:46;;;;;;;3.30;1.73;;;19.50;99.90;;;;;;5010834;28;20084;-88
2022/06/30 01:12:56;;;;;;;4.28;1.90;;;19.40;99.90;;;;;;5025182;28;20033;-89
2022/06/30 01:15:22;;;;;;;4.22;2.03;;;19.40;99.90;;;;;;5012961;28;20017;-89
2022/06/30 01:17:49;;;;;;;3.55;1.88;;;19.30;99.90;;;;;;5008886;28;20026;-89
2022/06/30 01:20:16;;;;;;;4.25;1.95;;;19.30;99.90;;;;;;5011566;28;20025;-89
2022/06/30 01:22:42;;;;;;;4.30;1.73;;;19.30;99.90;;;;;;5009163;28;20033;-89
2022/06/30 01:25:10;;;;;;;3.95;2.03;;;19.30;99.90;;;;;;5011146;28;20121;-88
2022/06/30 01:27:36;;;;;;;4.53;2.00;;;19.20;99.90;;;;;;5007949;28;20394;-89
2022/06/30 01:30:03;;;;;;;6.13;1.77;;;19.20;99.90;;;;;;5029353;28;20029;-89
2022/06/30 01:32:29;;;;;;;3.50;1.85;;;19.20;99.90;;;;;;5011849;28;20037;-89
2022/06/30 01:34:59;;;;;;;4.03;1.70;;;19.20;99.90;;;;;;5012041;28;20079;-89
2022/06/30 01:37:25;;;;;;;3.20;1.70;;;19.10;99.90;;;;;;5014501;28;20025;-88
2022/06/30 01:39:51;;;;;;;4.05;1.95;;;19.10;99.90;;;;;;5030709;28;20057;-88
2022/06/30 01:42:17;;;;;;;4.88;2.20;;;19.10;99.90;;;;;;5011474;28;20029;-89
2022/06/30 01:44:45;;;;;;;5.03;1.92;;;19.10;99.90;;;;;;5028209;28;20406;-89
2022/06/30 01:47:10;;;;;;;4.68;2.13;;;19.00;99.90;;;;;;5010692;28;20030;-89
2022/06/30 01:49:36;;;;;;;5.03;2.10;;;19.00;99.90;;;;;;5027354;28;20150;-89
2022/06/30 01:52:03;;;;;;;4.20;2.00;;;18.90;99.90;;;;;;5010711;28;20060;-89
2022/06/30 01:54:29;;;;;;;5.18;2.10;;;18.90;99.90;;;;;;5029472;28;20032;-88
2022/06/30 01:56:55;;;;;;;3.72;2.00;;;18.90;99.90;;;;;;5016226;28;20029;-89
2022/06/30 01:59:20;;;;;;;3.45;2.15;;;18.80;99.90;;;;;;5014264;28;20025;-89
2022/06/30 02:01:46;;;;;;;3.65;2.00;;;18.80;99.90;;;;;;5008473;28;20052;-88
2022/06/30 02:06:57;;;;;;;4.22;1.98;;;18.80;99.90;;;;;;5024436;28;21390;-89
2022/06/30 02:09:24;;;;;;;4.05;1.75;;;18.80;99.90;;;;;;5024683;28;20049;-89
2022/06/30 02:12:45;;;;;;;4.07;1.63;;;18.70;99.90;;;;;;5018441;28;20037;-89
2022/06/30 02:14:35;;;;;;;4.10;1.88;;;18.70;99.90;;;;;;5031604;28;20047;-88
2022/06/30 02:17:00;;;;;;;3.92;2.22;;;18.70;99.90;;;;;;5011000;28;20026;-89
2022/06/30 02:19:26;;;;;;;3.97;2.10;;;18.70;99.90;;;;;;5032475;28;20083;-89
2022/06/30 02:21:51;;;;;;;5.32;2.10;;;18.70;99.90;;;;;;5010999;28;20072;-88
2022/06/30 02:24:17;;;;;;;4.05;2.17;;;18.70;99.90;;;;;;5018506;28;20033;-88
2022/06/30 02:26:44;;;;;;;5.28;2.55;;;18.60;99.90;;;;;;5010859;28;20090;-90
2022/06/30 02:29:09;;;;;;;3.70;1.92;;;18.60;99.90;;;;;;5011783;28;20060;-88
2022/06/30 02:31:35;;;;;;;4.43;2.35;;;18.60;99.90;;;;;;5008606;28;20830;-89
2022/06/30 02:34:00;;;;;;;4.40;2.33;;;18.60;99.90;;;;;;5012335;28;20030;-89
2022/06/30 02:36:26;;;;;;;4.30;2.10;;;18.60;99.90;;;;;;5015002;28;20500;-89
2022/06/30 02:38:52;;;;;;;4.00;1.98;;;18.60;99.90;;;;;;5008733;28;20033;-89
2022/06/30 02:41:17;;;;;;;5.93;2.33;;;18.50;99.90;;;;;;5012631;28;20029;-88
2022/06/30 02:43:43;;;;;;;3.83;2.22;;;18.50;99.90;;;;;;5012521;28;20034;-90
2022/06/30 02:46:09;;;;;;;5.38;2.17;;;18.40;99.90;;;;;;5008216;28;20609;-89
2022/06/30 02:48:35;;;;;;;4.13;1.73;;;18.40;99.90;;;;;;5026987;28;20036;-89
2022/06/30 02:51:01;;;;;;;3.13;1.77;;;18.40;99.90;;;;;;5011645;28;20389;-90
2022/06/30 02:53:27;;;;;;;4.03;2.30;;;18.30;99.90;;;;;;5025845;28;20018;-89
2022/06/30 02:55:52;;;;;;;5.15;2.30;;;18.30;99.90;;;;;;5001935;28;20501;-89
2022/06/30 02:58:18;;;;;;;4.65;2.53;;;18.40;99.90;;;;;;5012062;28;20393;-89
2022/06/30 03:00:43;;;;;;;4.28;2.05;;;18.40;99.90;;;;;;5012538;28;20033;-89
2022/06/30 03:03:10;;;;;;;5.03;2.15;;;18.40;99.90;;;;;;5008678;28;20118;-88
2022/06/30 03:05:36;;;;;;;4.88;1.92;;;18.30;99.90;;;;;;5025064;28;20026;-89
2022/06/30 03:08:01;;;;;;;5.03;2.05;;;18.30;99.90;;;;;;5006575;28;20034;-90
2022/06/30 03:10:27;;;;;;;4.72;2.47;;;18.30;99.90;;;;;;5030653;28;20512;-89
2022/06/30 03:12:53;;;;;;;4.72;2.08;;;18.30;99.90;;;;;;5015655;28;20037;-90
2022/06/30 03:15:19;;;;;;;4.15;1.92;;;18.30;99.90;;;;;;5012329;28;20030;-90
2022/06/30 03:17:44;;;;;;;4.78;1.98;;;18.30;99.90;;;;;;5015918;28;20025;-89
2022/06/30 03:20:11;;;;;;;5.90;2.17;;;18.30;99.90;;;;;;5009878;28;20026;-89
2022/06/30 03:22:37;;;;;;;4.28;1.85;;;18.30;99.90;;;;;;5029228;28;20087;-89
2022/06/30 03:25:03;;;;;;;4.45;2.05;;;18.20;99.90;;;;;;5009492;28;20029;-90
2022/06/30 03:27:29;;;;;;;4.72;2.30;;;18.20;99.90;;;;;;5014753;28;20037;-90
2022/06/30 03:29:55;;;;;;;4.75;2.38;;;18.10;99.90;;;;;;5028356;28;20037;-89
2022/06/30 03:32:20;;;;;;;4.03;2.17;;;18.00;99.90;;;;;;5010831;28;20072;-89
2022/06/30 03:34:46;;;;;;;3.55;1.90;;;18.10;99.90;;;;;;5010061;28;20073;-89
2022/06/30 03:37:12;;;;;;;3.55;2.08;;;18.00;99.90;;;;;;5028452;28;20025;-89
2022/06/30 03:39:37;;;;;;;4.68;2.22;;;18.00;99.90;;;;;;5031097;28;20079;-89
2022/06/30 03:42:03;;;;;;;5.75;2.10;;;18.00;99.90;;;;;;5010123;28;20040;-89
2022/06/30 03:44:29;;;;;;;4.45;2.10;;;18.00;99.90;;;;;;5017726;28;20044;-88
2022/06/30 03:46:55;;;;;;;3.17;1.73;;;17.90;99.90;;;;;;5015579;28;20096;-89
2022/06/30 03:49:21;;;;;;;3.80;2.15;;;18.00;99.90;;;;;;5013311;28;20028;-89
2022/06/30 03:51:46;;;;;;;4.15;2.00;;;18.00;99.90;;;;;;5012744;28;20030;-89
2022/06/30 03:54:12;;;;;;;4.90;2.33;;;18.00;99.90;;;;;;5012987;28;20061;-88
2022/06/30 03:56:39;;;;;;;4.38;2.10;;;18.00;99.90;;;;;;5013840;28;20504;-88
2022/06/30 03:59:04;;;;;;;5.82;2.17;;;18.10;99.90;;;;;;5028115;28;20093;-88
2022/06/30 04:01:30;;;;;;;5.03;2.17;;;18.10;99.90;;;;;;5013278;28;20041;-89
2022/06/30 04:03:55;;;;;;;3.60;1.92;;;18.10;99.90;;;;;;5026017;28;20037;-89
2022/06/30 04:06:23;;;;;;;3.90;1.95;;;18.10;99.90;;;;;;5008849;28;20029;-89
2022/06/30 04:08:48;;;;;;;4.35;2.25;;;18.10;99.90;;;;;;5025171;28;20036;-90
2022/06/30 04:11:14;;;;;;;4.78;1.95;;;18.20;99.90;;;;;;5012187;28;20029;-89
2022/06/30 04:13:40;;;;;;;3.65;1.67;;;18.10;99.90;;;;;;5010065;28;20034;-90
2022/06/30 04:16:05;;;;;;;3.55;2.08;;;18.10;99.90;;;;;;5022773;28;20021;-88
2022/06/30 04:18:31;;;;;;;4.70;2.10;;;18.20;99.90;;;;;;5008061;28;20414;-90
2022/06/30 04:20:57;;;;;;;4.25;2.08;;;18.20;99.90;;;;;;5004730;28;20060;-89
2022/06/30 04:23:23;;;;;;;3.38;1.70;;;18.20;99.90;;;;;;5009132;28;20017;-89
2022/06/30 04:25:48;;;;;;;6.85;1.92;;;18.30;99.90;;;;;;5023323;28;20022;-89
2022/06/30 04:28:14;;;;;;;4.38;2.42;;;18.30;99.90;;;;;;5026791;28;20021;-89
2022/06/30 04:33:25;;;;;;;4.57;2.35;;;18.10;99.90;;;;;;5021424;28;20040;-89
2022/06/30 04:35:53;;;;;;;5.60;2.70;;;17.90;99.90;;;;;;5026577;28;20536;-89
2022/06/30 04:38:18;;;;;;;5.13;2.70;;;18.00;99.90;;;;;;5014266;28;20474;-89
2022/06/30 04:43:28;;;;;;;4.78;3.10;;;18.00;99.90;;;;;;5018922;28;20061;-89
2022/06/30 04:45:54;;;;;;;5.18;2.95;;;18.20;99.90;;;;;;5000416;28;20061;-89
2022/06/30 04:48:20;;;;;;;5.32;3.30;;;18.30;99.90;;;;;;5027936;28;20025;-89
2022/06/30 04:50:46;;;;;;;6.30;3.13;;;18.40;99.90;;;;;;5004624;28;20470;-88
2022/06/30 04:53:12;;;;;;;6.65;3.22;;;18.50;99.90;;;;;;5013124;28;20120;-89
2022/06/30 04:55:39;;;;;;;6.38;3.28;;;18.70;99.90;;;;;;5003010;28;20025;-89
2022/06/30 04:58:05;;;;;;;5.95;3.25;;;18.80;99.90;;;;;;5009492;28;20076;-89
2022/06/30 05:00:32;;;;;;;5.20;2.88;;;18.80;99.90;;;;;;5007631;28;20061;-89
2022/06/30 05:02:58;;;;;;;5.65;2.20;;;18.90;99.90;;;;;;5014501;28;20065;-87
2022/06/30 05:05:29;;;;;;;4.43;2.88;;;19.00;99.90;;;;;;5000747;28;20025;-89
2022/06/30 05:07:55;;;;;;;5.63;2.67;;;19.10;99.90;;;;;;5006371;28;20498;-89
2022/06/30 05:10:22;;;;;;;5.07;2.47;;;19.30;99.90;;;;;;5008966;28;20379;-89
2022/06/30 05:12:49;;;;;;;4.55;2.65;;;19.30;99.90;;;;;;5012166;28;20026;-90
2022/06/30 05:15:15;;;;;;;4.55;2.60;;;19.40;99.90;;;;;;5004306;28;20044;-89
2022/06/30 05:17:41;;;;;;;5.03;2.90;;;19.50;99.90;;;;;;5008145;28;20025;-89
2022/06/30 05:20:10;;;;;;;5.35;2.88;;;19.60;99.90;;;;;;5012929;28;20033;-91
2022/06/30 05:22:36;;;;;;;5.25;2.97;;;19.80;99.90;;;;;;5034386;28;20032;-89
2022/06/30 05:27:54;;;;;;;4.05;2.55;;;19.70;99.90;;;;;;5028325;28;20060;-89
2022/06/30 05:30:20;;;;;;;4.50;2.40;;;19.80;99.90;;;;;;5005802;28;20638;-89
2022/06/30 05:32:46;;;;;;;4.97;2.92;;;19.90;99.90;;;;;;5015579;28;20022;-88
2022/06/30 05:35:16;;;;;;;4.45;2.35;;;19.90;99.90;;;;;;5009880;28;20025;-89
2022/06/30 05:38:12;;;;;;;4.03;2.47;;;20.00;99.90;;;;;;5011581;28;20545;-89
2022/06/30 05:40:52;;;;;;;5.53;2.50;;;20.20;99.90;;;;;;5006864;28;20504;-88
2022/06/30 05:43:21;;;;;;;5.20;2.50;;;20.20;99.90;;;;;;5016592;28;20053;-88
2022/06/30 05:45:52;;;;;;;7.20;2.25;;;20.30;99.90;;;;;;5017662;28;20082;-89
2022/06/30 05:48:18;;;;;;;3.90;2.42;;;20.80;99.90;;;;;;5006045;28;20029;-88
2022/06/30 05:50:47;;;;;;;3.63;2.15;;;20.50;99.90;;;;;;5019181;28;20025;-89
2022/06/30 05:53:21;;;;;;;4.28;2.20;;;20.60;99.90;;;;;;5019870;28;20033;-89
2022/06/30 05:55:58;;;;;;;5.47;2.38;;;21.00;99.90;;;;;;5026292;28;20079;-89
2022/06/30 05:58:38;;;;;;;3.83;2.20;;;20.70;99.90;;;;;;5014252;28;20103;-89
2022/06/30 06:01:06;;;;;;;3.87;2.17;;;20.80;99.90;;;;;;5034216;23;20036;-86
2022/06/30 06:03:32;;;;;;;5.57;1.85;;;20.80;99.90;;;;;;5016655;28;20046;-87
2022/06/30 06:05:58;;;;;;;2.90;1.70;;;20.90;99.90;;;;;;5029130;28;20033;-87
2022/06/30 06:08:24;;;;;;;4.85;2.30;;;21.10;99.90;;;;;;5029769;28;20505;-86
2022/06/30 06:10:50;;;;;;;4.53;2.22;;;21.20;99.90;;;;;;5003836;28;20025;-86
2022/06/30 06:13:16;;;;;;;4.57;2.10;;;21.10;99.90;;;;;;5030484;28;20029;-86
2022/06/30 06:15:41;;;;;;;3.20;1.80;;;21.20;99.90;;;;;;5012569;28;20025;-86
2022/06/30 06:18:07;;;;;;;3.88;1.98;;;21.40;99.90;;;;;;5032516;28;20021;-86
2022/06/30 06:20:33;;;;;;;4.63;2.00;;;21.30;99.90;;;;;;5030561;28;20031;-86
2022/06/30 06:23:01;;;;;;;4.43;2.28;;;21.50;99.90;;;;;;5006098;28;20049;-87
2022/06/30 06:25:27;;;;;;;3.75;1.90;;;21.40;99.90;;;;;;5009533;28;20036;-87
2022/06/30 06:30:41;;;;;;;4.53;2.10;;;21.50;99.90;;;;;;5039898;28;20516;-86
2022/06/30 06:33:16;;;;;;;4.47;2.20;;;21.70;99.90;;;;;;5014455;28;20029;-86
2022/06/30 06:35:50;;;;;;;3.55;1.95;;;21.90;99.90;;;;;;5031091;28;20460;-86
2022/06/30 06:38:16;;;;;;;5.10;1.98;;;22.00;99.90;;;;;;5006145;28;20090;-87
2022/06/30 06:40:44;;;;;;;3.90;1.95;;;22.00;99.90;;;;;;5033553;28;20478;-86
2022/06/30 06:43:13;;;;;;;3.50;1.77;;;22.00;99.90;;;;;;5032773;28;20037;-87
2022/06/30 06:45:44;;;;;;;4.82;1.92;;;22.40;99.90;;;;;;5015078;28;20018;-87
2022/06/30 06:48:09;;;;;;;3.55;1.85;;;22.10;99.90;;;;;;5028442;28;20030;-87
2022/06/30 06:50:35;;;;;;;4.07;1.77;;;22.20;99.90;;;;;;5015190;28;20029;-87
2022/06/30 06:53:03;;;;;;;5.80;2.17;;;22.30;99.90;;;;;;5007976;28;20121;-87
2022/06/30 06:55:30;;;;;;;3.63;2.60;;;22.30;99.90;;;;;;5028513;28;20032;-87
2022/06/30 06:58:00;;;;;;;3.85;1.88;;;22.40;99.90;;;;;;5013045;28;20025;-87
2022/06/30 07:00:26;;;;;;;3.50;1.83;;;22.50;99.90;;;;;;5009498;28;20036;-88
2022/06/30 07:02:52;;;;;;;3.10;1.63;;;22.60;99.90;;;;;;5014938;28;20065;-88
2022/06/30 07:05:17;;;;;;;4.18;1.63;;;22.70;99.90;;;;;;5033037;28;20068;-88
2022/06/30 07:07:43;;;;;;;2.88;1.80;;;22.70;99.90;;;;;;5015522;28;20029;-88
2022/06/30 07:10:09;;;;;;;3.03;1.83;;;22.70;99.90;;;;;;5019214;28;20029;-87
2022/06/30 07:12:36;;;;;;;3.85;1.88;;;22.80;99.90;;;;;;5045438;28;20025;-88
2022/06/30 07:15:02;;;;;;;3.05;1.75;;;23.00;99.90;;;;;;5019297;28;20025;-88
2022/06/30 07:17:27;;;;;;;2.85;1.88;;;23.20;99.90;;;;;;5019128;28;20017;-88
2022/06/30 07:19:53;;;;;;;3.80;2.20;;;23.20;99.90;;;;;;5036372;28;20157;-87
2022/06/30 07:22:19;;;;;;;4.25;2.08;;;23.30;99.90;;;;;;5029289;28;20550;-88
2022/06/30 07:24:45;;;;;;;3.85;1.80;;;23.50;99.90;;;;;;5024179;28;20446;-88
2022/06/30 07:27:11;;;;;;;3.65;1.90;;;23.70;99.90;;;;;;5045885;28;20028;-88
2022/06/30 07:29:36;;;;;;;3.55;1.95;;;23.70;99.90;;;;;;5035727;28;20524;-88
2022/06/30 07:32:02;;;;;;;3.95;1.92;;;23.80;99.90;;;;;;5031057;28;20394;-88
2022/06/30 07:34:28;;;;;;;4.90;1.92;;;23.80;99.90;;;;;;5032084;28;20041;-88
2022/06/30 07:36:54;;;;;;;3.47;1.95;;;23.80;99.90;;;;;;5014532;28;20029;-89
2022/06/30 07:39:35;;;;;;;3.88;1.83;;;23.70;99.90;;;;;;5023599;28;20033;-88
2022/06/30 07:42:16;;;;;;;4.00;2.10;;;24.00;99.90;;;;;;5016757;28;20493;-88
2022/06/30 07:44:43;;;;;;;;;;;24.20;99.90;;;;;;5007764;28;20405;-89
2022/06/30 07:47:09;;;;;;;3.90;1.58;;;25.00;99.90;;;;;;5033518;28;19985;-86
2022/06/30 07:49:35;;;;;;;3.50;1.67;;;24.70;99.90;;;;;;5036337;28;20592;-88
2022/06/30 07:52:01;;;;;;;2.80;1.60;;;24.80;99.90;;;;;;5017700;28;20394;-88
2022/06/30 07:54:26;;;;;;;3.03;1.58;;;25.00;99.90;;;;;;5017192;28;20120;-88
2022/06/30 07:56:52;;;;;;;3.35;1.52;;;24.90;99.90;;;;;;5017152;28;20485;-88
2022/06/30 07:59:18;;;;;;;4.35;1.42;;;25.20;99.90;;;;;;5017781;28;20025;-88
2022/06/30 08:01:44;;;;;;;3.53;1.75;;;25.40;99.90;;;;;;5033080;28;20038;-88
2022/06/30 08:04:12;;;;;;;2.80;1.67;;;25.30;99.90;;;;;;5034371;28;20064;-88
2022/06/30 08:06:38;;;;;;;2.95;1.38;;;25.70;99.90;;;;;;5011460;28;20022;-88
2022/06/30 08:09:06;;;;;;;2.38;1.30;;;25.90;99.90;;;;;;5013609;28;20120;-88
2022/06/30 08:11:32;;;;;;;3.30;1.88;;;25.90;99.90;;;;;;5022200;28;20029;-88
2022/06/30 08:13:58;;;;;;;2.35;1.30;;;26.00;99.90;;;;;;5034479;28;20014;-88
2022/06/30 08:16:24;;;;;;;3.63;1.60;;;26.20;99.90;;;;;;5023608;28;20018;-88
2022/06/30 08:18:50;;;;;;;3.70;1.55;;;26.20;99.90;;;;;;4997699;28;20072;-88
2022/06/30 08:21:18;;;;;;;2.17;1.20;;;26.40;99.90;;;;;;5033814;28;20026;-88
2022/06/30 08:23:47;;;;;;;2.08;1.10;;;26.20;99.90;;;;;;5022794;28;20026;-88
2022/06/30 08:26:15;;;;;;;3.53;1.20;;;26.50;99.90;;;;;;4996817;28;20069;-88
2022/06/30 08:28:41;;;;;;;2.70;1.67;;;26.50;99.90;;;;;;5014658;28;20021;-88
2022/06/30 08:31:07;;;;;;;4.47;1.58;;;26.50;99.90;;;;;;5015025;28;20501;-88
2022/06/30 08:33:32;;;;;;;2.25;1.20;;;26.50;99.90;;;;;;5016174;28;20505;-88
2022/06/30 08:35:58;;;;;;;3.17;1.15;;;26.30;99.90;;;;;;5016791;28;20028;-88
2022/06/30 08:38:25;;;;;;;2.28;1.08;;;26.70;99.90;;;;;;5018892;28;20037;-87
2022/06/30 08:43:42;;;;;;;4.10;1.23;;;26.90;99.90;;;;;;5022444;28;20504;-88
2022/06/30 08:46:11;;;;;;;2.08;1.20;;;27.10;99.90;;;;;;5015535;28;20037;-88
2022/06/30 08:48:38;;;;;;;3.45;1.10;;;27.10;99.90;;;;;;5019149;28;20030;-88
2022/06/30 08:51:05;;;;;;;2.85;1.25;;;27.30;99.90;;;;;;5001126;28;20043;-88
2022/06/30 08:53:45;;;;;;;2.88;0.88;;;27.20;99.90;;;;;;5015859;28;20036;-88
2022/06/30 08:56:12;;;;;;;3.90;1.30;;;27.30;99.90;;;;;;5016812;28;20108;-88
2022/06/30 08:58:41;;;;;;;2.97;1.35;;;27.50;99.90;;;;;;5032723;28;20087;-88
2022/06/30 09:01:07;;;;;;;2.45;1.27;;;27.30;99.90;;;;;;5045785;28;20489;-88
2022/06/30 09:03:37;;;;;;;4.75;1.85;;;27.70;99.90;;;;;;5016356;28;20053;-88
2022/06/30 09:06:09;;;;;;;2.50;1.20;;;27.50;99.90;;;;;;5030269;28;20024;-89
2022/06/30 09:08:39;;;;;;;1.75;1.10;;;27.60;99.90;;;;;;4999043;28;20037;-88
2022/06/30 09:11:15;;;;;;;2.25;1.25;;;27.90;99.90;;;;;;5021010;28;20434;-89
2022/06/30 09:14:08;;;;;;;2.03;0.90;;;27.70;99.90;;;;;;5013924;28;20500;-88
2022/06/30 09:16:36;;;;;;;2.45;1.05;;;27.90;99.90;;;;;;5002313;28;20022;-88
2022/06/30 09:19:03;;;;;;;2.40;0.90;;;28.00;99.90;;;;;;5014690;28;20516;-88
2022/06/30 09:21:29;;;;;;;2.67;1.15;;;28.20;99.90;;;;;;5018787;28;20061;-89
2022/06/30 09:23:57;;;;;;;3.33;1.10;;;28.30;99.70;;;;;;5032326;28;20071;-88
2022/06/30 09:26:25;;;;;;;2.78;1.00;;;28.20;99.10;;;;;;5036043;28;20022;-88
2022/06/30 09:28:56;;;;;;;1.55;0.82;;;28.30;98.90;;;;;;5034539;28;20030;-88
2022/06/30 09:31:38;;;;;;;1.67;0.90;;;28.40;98.40;;;;;;5028250;28;20037;-88
2022/06/30 09:34:21;;;;;;;1.88;0.90;;;28.60;97.80;;;;;;5018250;28;20029;-89
2022/06/30 09:36:50;;;;;;;1.60;0.80;;;28.90;97.20;;;;;;5013747;28;20038;-89
2022/06/30 09:39:17;;;;;;;1.80;0.90;;;29.10;97.30;;;;;;5022818;28;20075;-88
2022/06/30 09:41:44;;;;;;;1.20;0.70;;;28.90;96.50;;;;;;5018328;28;20021;-88
2022/06/30 09:44:16;;;;;;;2.42;0.90;;;29.30;97.10;;;;;;5017512;28;20025;-88
2022/06/30 09:47:01;;;;;;;2.13;0.90;;;28.80;96.10;;;;;;5011002;28;20080;-89
2022/06/30 09:49:49;;;;;;;1.95;0.85;;;29.10;96.80;;;;;;5004121;28;20394;-89
2022/06/30 09:52:24;;;;;;;2.03;0.75;;;28.90;96.10;;;;;;5013259;28;20032;-87
2022/06/30 09:54:58;;;;;;;3.80;1.13;;;29.30;95.90;;;;;;5025993;28;20080;-88
2022/06/30 09:57:47;;;;;;;2.25;0.70;;;29.20;94.40;;;;;;5012946;28;20053;-88
2022/06/30 10:00:16;;;;;;;1.40;0.80;;;29.40;94.20;;;;;;5004402;28;20478;-88
2022/06/30 10:02:47;;;;;;;2.92;0.70;;;29.30;93.60;;;;;;5016783;28;20124;-88
2022/06/30 10:05:15;;;;;;;2.13;1.05;;;29.40;94.30;;;;;;5018530;28;20032;-88
2022/06/30 10:07:41;;;;;;;2.85;0.80;;;29.50;93.30;;;;;;5022052;28;20021;-88
2022/06/30 10:10:13;;;;;;;1.30;0.80;;;29.50;93.10;;;;;;5017234;28;20029;-88
2022/06/30 10:12:45;;;;;;;3.55;0.80;;;29.70;93.70;;;;;;5017910;28;20025;-89
2022/06/30 10:15:13;;;;;;;3.38;0.70;;;29.90;93.50;;;;;;5017314;28;20017;-88
2022/06/30 10:17:45;;;;;;;3.15;0.80;;;30.30;93.50;;;;;;5014779;28;20478;-89
2022/06/30 10:20:11;;;;;;;1.40;0.65;;;30.20;92.60;;;;;;5015848;28;20025;-89
2022/06/30 10:22:39;;;;;;;1.75;0.93;;;30.20;92.20;;;;;;5031172;28;20512;-89
2022/06/30 10:25:12;;;;;;;2.38;0.80;;;30.10;92.20;;;;;;5031150;28;20454;-88
2022/06/30 10:27:41;;;;;;;1.63;0.80;;;30.20;93.10;;;;;;5030944;28;20041;-89
2022/06/30 10:30:11;;;;;;;4.53;1.15;;;30.40;93.10;;;;;;5031301;28;20099;-89
2022/06/30 10:32:57;;;;;;;2.73;1.10;;;30.20;92.50;;;;;;5019443;28;20084;-88
2022/06/30 10:35:41;;;;;;;2.63;0.80;;;30.10;91.90;;;;;;5020935;28;20029;-89
2022/06/30 10:38:39;;;;;;;1.90;0.88;;;30.70;93.20;;;;;;5034371;28;20018;-89
2022/06/30 10:41:14;;;;;;;2.17;1.10;;;31.10;93.00;;;;;;4994485;28;20038;-89
2022/06/30 10:44:05;;;;;;;2.28;0.88;;;30.70;92.10;;;;;;5012860;28;20022;-89
2022/06/30 10:46:51;;;;;;;1.88;0.85;;;30.80;91.90;;;;;;5011682;28;20041;-89
2022/06/30 10:49:17;;;;;;;2.95;0.90;;;31.20;92.80;;;;;;5034010;28;20024;-89
2022/06/30 10:51:45;;;;;;;2.50;1.35;;;31.40;91.70;;;;;;5031182;28;20029;-89
2022/06/30 10:54:26;;;;;;;3.55;0.98;;;31.20;90.90;;;;;;5030748;28;20029;-89
2022/06/30 10:56:51;;;;;;;4.82;1.15;;;31.40;90.80;;;;;;5013225;28;20063;-89
2022/06/30 10:59:26;;;;;;;1.42;0.70;;;31.20;89.80;;;;;;5010610;28;20021;-89
2022/06/30 11:02:07;;;;;;;1.98;0.90;;;31.40;91.20;;;;;;5011699;28;20033;-89
2022/06/30 11:04:49;;;;;;;2.33;1.10;;;31.30;89.40;;;;;;5016441;28;20036;-89
2022/06/30 11:07:24;;;;;;;3.42;0.98;;;31.30;88.00;;;;;;5010841;28;20061;-89
2022/06/30 11:09:55;;;;;;;1.80;0.88;;;31.40;87.40;;;;;;5029536;28;20026;-89
2022/06/30 11:12:43;;;;;;;1.52;0.80;;;31.50;88.10;;;;;;5013761;28;20512;-88
2022/06/30 11:15:14;;;;;;;1.83;1.00;;;31.60;87.00;;;;;;5017029;28;20041;-89
2022/06/30 11:17:40;;;;;;;2.40;1.13;;;31.60;90.30;;;;;;5013094;28;20491;-88
2022/06/30 11:20:16;;;;;;;1.95;0.88;;;31.60;89.30;;;;;;5027048;28;20057;-88
2022/06/30 11:22:43;;;;;;;3.30;1.10;;;31.80;89.50;;;;;;5013419;28;20029;-88
2022/06/30 11:28:13;;;;;;;1.98;1.00;;;32.10;89.10;;;;;;5032488;28;20056;-88
2022/06/30 11:30:39;;;;;;;1.65;0.90;;;32.50;89.10;;;;;;5033434;28;20030;-89
2022/06/30 11:33:06;;;;;;;2.13;0.80;;;32.10;86.40;;;;;;5022678;28;20057;-88
2022/06/30 11:35:35;;;;;;;2.85;0.80;;;32.20;87.90;;;;;;5015178;28;20120;-89
2022/06/30 11:38:01;;;;;;;2.10;1.27;;;32.40;87.30;;;;;;5035173;28;20037;-88
2022/06/30 11:40:30;;;;;;;2.60;1.13;;;32.50;86.50;;;;;;5036245;28;20066;-89
2022/06/30 11:42:56;;;;;;;1.75;1.00;;;32.80;86.80;;;;;;5023387;28;20033;-88
2022/06/30 11:45:24;;;;;;;1.88;0.90;;;33.00;84.50;;;;;;4998995;28;20172;-88
2022/06/30 11:48:00;;;;;;;2.47;1.35;;;33.20;85.20;;;;;;5023943;28;20033;-89
2022/06/30 11:50:26;;;;;;;2.17;0.93;;;33.30;83.80;;;;;;5031552;28;20021;-88
2022/06/30 11:52:53;;;;;;;1.80;1.00;;;32.80;83.60;;;;;;5032737;28;20029;-89
2022/06/30 11:55:23;;;;;;;1.90;0.93;;;33.10;83.10;;;;;;5014748;28;20622;-88
2022/06/30 11:57:49;;;;;;;;;;;33.50;83.20;;;;;;5031882;28;20032;-88
2022/06/30 12:00:31;;;;;;;1.80;0.80;;;33.60;81.30;;;;;;5025328;28;19902;-89
2022/06/30 12:02:57;;;;;;;1.23;0.70;;;33.60;81.50;;;;;;5012012;28;20037;-89
2022/06/30 12:05:27;;;;;;;2.17;0.90;;;33.60;80.10;;;;;;5004781;28;20022;-89
2022/06/30 12:07:53;;;;;;;;;;;33.50;79.90;;;;;;5014263;28;20035;-88
2022/06/30 12:10:24;;;;;;;2.78;1.00;;;33.50;79.20;;;;;;5012872;28;19905;-89
2022/06/30 12:12:51;;;;;;;3.25;1.10;;;33.20;79.20;;;;;;5010044;28;20076;-90
2022/06/30 12:15:18;;;;;;;1.13;0.55;;;33.20;79.40;;;;;;5007689;28;20437;-89
2022/06/30 12:17:45;;;;;;;2.33;1.17;;;32.80;80.30;;;;;;5011701;28;20033;-88
2022/06/30 12:20:13;;;;;;;1.60;0.88;;;32.80;80.00;;;;;;5012290;28;20025;-88
2022/06/30 12:22:45;;;;;;;1.95;0.80;;;32.60;80.70;;;;;;5011774;28;20044;-89
2022/06/30 12:25:12;;;;;;;2.53;1.30;;;32.80;80.90;;;;;;5014495;28;20084;-90
2022/06/30 12:27:47;;;;;;;1.70;0.90;;;33.20;79.90;;;;;;5030382;28;20022;-89
2022/06/30 12:30:20;;;;;;;2.33;0.82;;;33.50;79.00;;;;;;5011210;28;20068;-88
2022/06/30 12:32:56;;;;;;;1.63;0.85;;;33.20;77.10;;;;;;5033662;28;20025;-88
2022/06/30 12:35:24;;;;;;;2.00;0.95;;;33.50;78.70;;;;;;5028309;28;20338;-91
2022/06/30 12:37:55;;;;;;;3.28;0.80;;;33.20;76.30;;;;;;5031827;28;20125;-87
2022/06/30 12:40:23;;;;;;;2.88;0.80;;;33.40;78.40;;;;;;5032186;28;20028;-89
2022/06/30 12:42:57;;;;;;;3.20;1.20;;;33.60;79.20;;;;;;5008119;28;20092;-89
2022/06/30 12:45:46;;;;;;;1.52;0.80;;;34.20;78.50;;;;;;5008353;28;20539;-89
2022/06/30 12:48:52;;;;;;;3.80;1.45;;;34.30;76.30;;;;;;5018261;28;20104;-89
2022/06/30 12:51:43;;;;;;;2.22;0.98;;;33.90;75.00;;;;;;5005318;28;20128;-89
2022/06/30 12:54:13;;;;;;;1.90;0.90;;;34.60;76.40;;;;;;5013461;28;20025;-89
2022/06/30 12:56:41;;;;;;;1.90;0.85;;;34.70;73.90;;;;;;5008229;28;20025;-89
2022/06/30 12:59:10;;;;;;;2.30;1.33;;;35.60;73.00;;;;;;5008209;28;20022;-88
2022/06/30 13:01:52;;;;;;;2.47;1.00;;;35.60;73.40;;;;;;5029663;28;20048;-88
2022/06/30 13:04:22;;;;;;;1.85;1.02;;;35.20;73.90;;;;;;5023894;28;20037;-88
2022/06/30 13:06:50;;;;;;;1.17;0.77;;;35.50;75.00;;;;;;5007128;28;20462;-88
2022/06/30 13:09:19;;;;;;;1.77;0.88;;;35.60;73.50;;;;;;5027084;28;20025;-88
2022/06/30 13:11:54;;;;;;;2.55;1.05;;;35.70;72.50;;;;;;5030689;28;20072;-88
2022/06/30 13:14:23;;;;;;;2.50;0.93;;;36.00;72.60;;;;;;5027304;28;20032;-88
2022/06/30 13:16:49;;;;;;;3.58;1.10;;;35.90;72.10;;;;;;5032952;28;20026;-88
2022/06/30 13:19:17;;;;;;;1.80;0.88;;;35.80;72.30;;;;;;5011492;28;20025;-89